< < Back
Terminal Aerodrome Forecast


Current Version              Previous Versions:   1  2  3  4  5  6  7  8  9  

Terminal Aerodrome Forecast

439
FTUS42 KTAE 261700
TAFTLH
TAF
KTLH 261720Z 2618/2718 32011KT P6SM SKC
     FM270800 28006KT P6SM SKC=

Latest METAR

797
SAUS80 KWBC 270500
MTRTLH
METAR KTLH 270453Z AUTO 00000KT 10SM CLR 04/01 A3022 RMK AO2 SLP232
T00390011 401720039 $


USA.gov is the U.S. government's official web portal to all federal, state and local government web resources and services.